sensor_id;sensor_type;location;lat;lon;timestamp;P1;durP1;ratioP1;P2;durP2;ratioP2
20627;SDS011;10473;42.734;24.258;2022-12-11T00:00:36;1.17;;;0.57;;
20627;SDS011;10473;42.734;24.258;2022-12-11T00:03:04;1.00;;;0.83;;
20627;SDS011;10473;42.734;24.258;2022-12-11T00:05:33;3.30;;;1.20;;
20627;SDS011;10473;42.734;24.258;2022-12-11T00:08:04;1.73;;;1.00;;
20627;SDS011;10473;42.734;24.258;2022-12-11T00:10:32;1.93;;;1.30;;
20627;SDS011;10473;42.734;24.258;2022-12-11T00:13:00;3.30;;;1.00;;
20627;SDS011;10473;42.734;24.258;2022-12-11T00:15:28;1.17;;;0.70;;
20627;SDS011;10473;42.734;24.258;2022-12-11T00:17:56;2.10;;;0.77;;
20627;SDS011;10473;42.734;24.258;2022-12-11T00:20:23;0.80;;;0.60;;
20627;SDS011;10473;42.734;24.258;2022-12-11T00:22:53;1.03;;;0.77;;
20627;SDS011;10473;42.734;24.258;2022-12-11T00:25:21;1.90;;;1.07;;
20627;SDS011;10473;42.734;24.258;2022-12-11T00:27:48;2.17;;;0.70;;
20627;SDS011;10473;42.734;24.258;2022-12-11T00:30:17;5.20;;;0.60;;
20627;SDS011;10473;42.734;24.258;2022-12-11T00:32:45;2.23;;;1.60;;
20627;SDS011;10473;42.734;24.258;2022-12-11T00:35:13;1.40;;;0.50;;
20627;SDS011;10473;42.734;24.258;2022-12-11T00:37:41;3.13;;;0.80;;
20627;SDS011;10473;42.734;24.258;2022-12-11T00:40:10;1.60;;;0.97;;
20627;SDS011;10473;42.734;24.258;2022-12-11T00:42:38;0.97;;;0.67;;
20627;SDS011;10473;42.734;24.258;2022-12-11T00:45:06;3.20;;;1.10;;
20627;SDS011;10473;42.734;24.258;2022-12-11T00:47:34;1.67;;;1.47;;
20627;SDS011;10473;42.734;24.258;2022-12-11T00:50:02;2.00;;;0.97;;
20627;SDS011;10473;42.734;24.258;2022-12-11T00:52:30;1.13;;;0.93;;
20627;SDS011;10473;42.734;24.258;2022-12-11T00:54:59;1.37;;;1.20;;
20627;SDS011;10473;42.734;24.258;2022-12-11T00:57:28;3.37;;;1.20;;
20627;SDS011;10473;42.734;24.258;2022-12-11T00:59:56;1.67;;;0.77;;
20627;SDS011;10473;42.734;24.258;2022-12-11T01:02:24;1.00;;;0.60;;
20627;SDS011;10473;42.734;24.258;2022-12-11T01:04:51;2.53;;;0.70;;
20627;SDS011;10473;42.734;24.258;2022-12-11T01:07:19;3.57;;;1.30;;
20627;SDS011;10473;42.734;24.258;2022-12-11T01:09:47;2.07;;;0.97;;
20627;SDS011;10473;42.734;24.258;2022-12-11T01:12:33;1.63;;;0.67;;
20627;SDS011;10473;42.734;24.258;2022-12-11T01:15:01;0.87;;;0.60;;
20627;SDS011;10473;42.734;24.258;2022-12-11T01:17:29;2.13;;;1.63;;
20627;SDS011;10473;42.734;24.258;2022-12-11T01:19:57;1.37;;;0.77;;
20627;SDS011;10473;42.734;24.258;2022-12-11T01:22:24;2.03;;;0.97;;
20627;SDS011;10473;42.734;24.258;2022-12-11T01:24:52;0.80;;;0.80;;
20627;SDS011;10473;42.734;24.258;2022-12-11T01:27:20;0.57;;;0.50;;
20627;SDS011;10473;42.734;24.258;2022-12-11T01:29:49;0.40;;;0.40;;
20627;SDS011;10473;42.734;24.258;2022-12-11T01:32:17;2.67;;;0.90;;
20627;SDS011;10473;42.734;24.258;2022-12-11T01:34:45;0.77;;;0.57;;
20627;SDS011;10473;42.734;24.258;2022-12-11T01:37:12;0.87;;;0.70;;
20627;SDS011;10473;42.734;24.258;2022-12-11T01:39:40;1.90;;;1.10;;
20627;SDS011;10473;42.734;24.258;2022-12-11T01:42:09;2.70;;;0.67;;
20627;SDS011;10473;42.734;24.258;2022-12-11T01:47:45;1.50;;;0.50;;
20627;SDS011;10473;42.734;24.258;2022-12-11T01:50:13;2.23;;;0.63;;
20627;SDS011;10473;42.734;24.258;2022-12-11T01:52:42;1.43;;;0.80;;
20627;SDS011;10473;42.734;24.258;2022-12-11T01:55:12;1.27;;;0.37;;
20627;SDS011;10473;42.734;24.258;2022-12-11T01:57:41;3.07;;;0.87;;
20627;SDS011;10473;42.734;24.258;2022-12-11T02:00:12;3.43;;;0.60;;
20627;SDS011;10473;42.734;24.258;2022-12-11T02:02:40;4.97;;;1.20;;
20627;SDS011;10473;42.734;24.258;2022-12-11T02:05:09;1.47;;;0.47;;
20627;SDS011;10473;42.734;24.258;2022-12-11T02:07:39;2.20;;;0.57;;
20627;SDS011;10473;42.734;24.258;2022-12-11T02:10:10;3.10;;;0.87;;
20627;SDS011;10473;42.734;24.258;2022-12-11T02:12:40;0.70;;;0.70;;
20627;SDS011;10473;42.734;24.258;2022-12-11T02:15:19;1.57;;;0.60;;
20627;SDS011;10473;42.734;24.258;2022-12-11T02:17:57;0.67;;;0.40;;
20627;SDS011;10473;42.734;24.258;2022-12-11T02:20:35;2.30;;;0.60;;
20627;SDS011;10473;42.734;24.258;2022-12-11T02:23:28;0.27;;;0.27;;
20627;SDS011;10473;42.734;24.258;2022-12-11T02:26:19;2.17;;;0.73;;
20627;SDS011;10473;42.734;24.258;2022-12-11T02:28:58;2.37;;;0.90;;
20627;SDS011;10473;42.734;24.258;2022-12-11T02:31:31;8.03;;;1.40;;
20627;SDS011;10473;42.734;24.258;2022-12-11T02:34:03;1.30;;;1.13;;
20627;SDS011;10473;42.734;24.258;2022-12-11T02:36:37;4.20;;;1.50;;
20627;SDS011;10473;42.734;24.258;2022-12-11T02:39:08;6.67;;;1.97;;
20627;SDS011;10473;42.734;24.258;2022-12-11T02:41:38;2.60;;;0.93;;
20627;SDS011;10473;42.734;24.258;2022-12-11T02:44:11;2.27;;;1.30;;
20627;SDS011;10473;42.734;24.258;2022-12-11T02:46:42;2.40;;;1.13;;
20627;SDS011;10473;42.734;24.258;2022-12-11T02:49:11;1.43;;;1.17;;
20627;SDS011;10473;42.734;24.258;2022-12-11T02:51:40;3.03;;;1.53;;
20627;SDS011;10473;42.734;24.258;2022-12-11T02:54:09;3.90;;;1.47;;
20627;SDS011;10473;42.734;24.258;2022-12-11T02:56:43;1.93;;;0.80;;
20627;SDS011;10473;42.734;24.258;2022-12-11T02:59:17;2.40;;;1.20;;
20627;SDS011;10473;42.734;24.258;2022-12-11T03:01:49;5.23;;;1.23;;
20627;SDS011;10473;42.734;24.258;2022-12-11T03:04:17;0.50;;;0.50;;
20627;SDS011;10473;42.734;24.258;2022-12-11T03:06:50;0.80;;;0.40;;
20627;SDS011;10473;42.734;24.258;2022-12-11T03:09:24;2.90;;;1.20;;
20627;SDS011;10473;42.734;24.258;2022-12-11T03:11:53;2.87;;;0.83;;
20627;SDS011;10473;42.734;24.258;2022-12-11T03:14:23;3.83;;;1.10;;
20627;SDS011;10473;42.734;24.258;2022-12-11T03:16:51;3.90;;;1.47;;
20627;SDS011;10473;42.734;24.258;2022-12-11T03:19:27;1.90;;;0.93;;
20627;SDS011;10473;42.734;24.258;2022-12-11T03:22:02;2.33;;;1.60;;
20627;SDS011;10473;42.734;24.258;2022-12-11T03:24:36;2.87;;;1.70;;
20627;SDS011;10473;42.734;24.258;2022-12-11T03:27:09;2.50;;;1.30;;
20627;SDS011;10473;42.734;24.258;2022-12-11T03:29:46;3.57;;;2.43;;
20627;SDS011;10473;42.734;24.258;2022-12-11T03:32:20;1.10;;;0.87;;
20627;SDS011;10473;42.734;24.258;2022-12-11T03:34:53;2.17;;;0.57;;
20627;SDS011;10473;42.734;24.258;2022-12-11T03:37:26;1.23;;;0.63;;
20627;SDS011;10473;42.734;24.258;2022-12-11T03:39:58;4.10;;;1.17;;
20627;SDS011;10473;42.734;24.258;2022-12-11T03:42:30;0.57;;;0.57;;
20627;SDS011;10473;42.734;24.258;2022-12-11T03:45:00;6.10;;;1.30;;
20627;SDS011;10473;42.734;24.258;2022-12-11T03:47:31;1.20;;;0.80;;
20627;SDS011;10473;42.734;24.258;2022-12-11T03:49:59;1.67;;;0.80;;
20627;SDS011;10473;42.734;24.258;2022-12-11T03:52:31;2.50;;;1.33;;
20627;SDS011;10473;42.734;24.258;2022-12-11T03:55:00;1.97;;;0.90;;
20627;SDS011;10473;42.734;24.258;2022-12-11T03:57:31;1.57;;;0.73;;
20627;SDS011;10473;42.734;24.258;2022-12-11T04:00:04;2.17;;;1.00;;
20627;SDS011;10473;42.734;24.258;2022-12-11T04:02:37;1.27;;;1.07;;
20627;SDS011;10473;42.734;24.258;2022-12-11T04:05:07;2.17;;;0.77;;
20627;SDS011;10473;42.734;24.258;2022-12-11T04:07:35;2.43;;;1.10;;
20627;SDS011;10473;42.734;24.258;2022-12-11T04:10:03;2.63;;;0.77;;
20627;SDS011;10473;42.734;24.258;2022-12-11T04:12:32;1.60;;;0.63;;
20627;SDS011;10473;42.734;24.258;2022-12-11T04:15:00;1.13;;;0.67;;
20627;SDS011;10473;42.734;24.258;2022-12-11T04:17:28;2.60;;;0.60;;
20627;SDS011;10473;42.734;24.258;2022-12-11T04:20:14;2.80;;;1.03;;
20627;SDS011;10473;42.734;24.258;2022-12-11T04:23:02;2.87;;;0.70;;
20627;SDS011;10473;42.734;24.258;2022-12-11T04:25:47;2.67;;;2.20;;
20627;SDS011;10473;42.734;24.258;2022-12-11T04:28:15;3.53;;;1.80;;
20627;SDS011;10473;42.734;24.258;2022-12-11T04:30:46;3.70;;;1.73;;
20627;SDS011;10473;42.734;24.258;2022-12-11T04:33:16;3.77;;;2.77;;
20627;SDS011;10473;42.734;24.258;2022-12-11T04:35:43;1.60;;;1.33;;
20627;SDS011;10473;42.734;24.258;2022-12-11T04:38:11;1.00;;;0.70;;
20627;SDS011;10473;42.734;24.258;2022-12-11T04:40:39;2.33;;;0.77;;
20627;SDS011;10473;42.734;24.258;2022-12-11T04:43:06;1.17;;;1.07;;
20627;SDS011;10473;42.734;24.258;2022-12-11T04:45:34;0.70;;;0.60;;
20627;SDS011;10473;42.734;24.258;2022-12-11T04:48:02;2.30;;;0.67;;
20627;SDS011;10473;42.734;24.258;2022-12-11T04:50:31;2.70;;;1.03;;
20627;SDS011;10473;42.734;24.258;2022-12-11T04:52:59;5.00;;;2.60;;
20627;SDS011;10473;42.734;24.258;2022-12-11T04:55:26;5.40;;;1.97;;
20627;SDS011;10473;42.734;24.258;2022-12-11T04:57:54;3.07;;;1.63;;
20627;SDS011;10473;42.734;24.258;2022-12-11T05:00:22;2.13;;;1.60;;
20627;SDS011;10473;42.734;24.258;2022-12-11T05:02:49;0.80;;;0.80;;
20627;SDS011;10473;42.734;24.258;2022-12-11T05:05:17;0.40;;;0.40;;
20627;SDS011;10473;42.734;24.258;2022-12-11T05:07:46;2.20;;;0.80;;
20627;SDS011;10473;42.734;24.258;2022-12-11T05:10:14;2.40;;;0.67;;
20627;SDS011;10473;42.734;24.258;2022-12-11T05:12:42;1.53;;;0.83;;
20627;SDS011;10473;42.734;24.258;2022-12-11T05:15:09;0.80;;;0.60;;
20627;SDS011;10473;42.734;24.258;2022-12-11T05:17:37;2.00;;;1.27;;
20627;SDS011;10473;42.734;24.258;2022-12-11T05:20:05;1.80;;;1.40;;
20627;SDS011;10473;42.734;24.258;2022-12-11T05:22:34;1.60;;;1.37;;
20627;SDS011;10473;42.734;24.258;2022-12-11T05:25:03;2.57;;;1.60;;
20627;SDS011;10473;42.734;24.258;2022-12-11T05:27:32;2.23;;;1.70;;
20627;SDS011;10473;42.734;24.258;2022-12-11T05:30:00;5.07;;;2.80;;
20627;SDS011;10473;42.734;24.258;2022-12-11T05:32:27;5.33;;;4.03;;
20627;SDS011;10473;42.734;24.258;2022-12-11T05:34:55;3.87;;;3.07;;
20627;SDS011;10473;42.734;24.258;2022-12-11T05:37:23;5.40;;;2.87;;
20627;SDS011;10473;42.734;24.258;2022-12-11T05:39:50;3.83;;;3.13;;
20627;SDS011;10473;42.734;24.258;2022-12-11T05:42:19;7.10;;;4.73;;
20627;SDS011;10473;42.734;24.258;2022-12-11T05:44:48;7.63;;;4.10;;
20627;SDS011;10473;42.734;24.258;2022-12-11T05:47:15;3.00;;;2.67;;
20627;SDS011;10473;42.734;24.258;2022-12-11T05:49:45;2.60;;;1.40;;
20627;SDS011;10473;42.734;24.258;2022-12-11T05:52:13;1.97;;;1.10;;
20627;SDS011;10473;42.734;24.258;2022-12-11T05:54:41;1.50;;;1.40;;
20627;SDS011;10473;42.734;24.258;2022-12-11T05:57:09;1.00;;;0.80;;
20627;SDS011;10473;42.734;24.258;2022-12-11T05:59:38;1.13;;;0.80;;
20627;SDS011;10473;42.734;24.258;2022-12-11T06:02:06;0.87;;;0.87;;
20627;SDS011;10473;42.734;24.258;2022-12-11T06:04:33;10.77;;;6.67;;
20627;SDS011;10473;42.734;24.258;2022-12-11T06:07:01;6.73;;;4.83;;
20627;SDS011;10473;42.734;24.258;2022-12-11T06:09:29;5.43;;;4.17;;
20627;SDS011;10473;42.734;24.258;2022-12-11T06:11:56;5.17;;;3.67;;
20627;SDS011;10473;42.734;24.258;2022-12-11T06:14:24;11.87;;;7.27;;
20627;SDS011;10473;42.734;24.258;2022-12-11T06:16:53;10.30;;;7.37;;
20627;SDS011;10473;42.734;24.258;2022-12-11T06:19:21;7.33;;;4.30;;
20627;SDS011;10473;42.734;24.258;2022-12-11T06:21:48;7.30;;;5.03;;
20627;SDS011;10473;42.734;24.258;2022-12-11T06:24:16;6.73;;;4.83;;
20627;SDS011;10473;42.734;24.258;2022-12-11T06:26:44;3.07;;;2.77;;
20627;SDS011;10473;42.734;24.258;2022-12-11T06:29:11;5.50;;;3.57;;
20627;SDS011;10473;42.734;24.258;2022-12-11T06:31:39;2.90;;;2.60;;
20627;SDS011;10473;42.734;24.258;2022-12-11T06:34:09;13.00;;;7.20;;
20627;SDS011;10473;42.734;24.258;2022-12-11T06:36:38;18.70;;;9.63;;
20627;SDS011;10473;42.734;24.258;2022-12-11T06:39:06;7.90;;;5.00;;
20627;SDS011;10473;42.734;24.258;2022-12-11T06:41:34;9.40;;;5.47;;
20627;SDS011;10473;42.734;24.258;2022-12-11T06:44:02;17.77;;;9.27;;
20627;SDS011;10473;42.734;24.258;2022-12-11T06:46:29;12.00;;;7.33;;
20627;SDS011;10473;42.734;24.258;2022-12-11T06:48:57;9.27;;;4.33;;
20627;SDS011;10473;42.734;24.258;2022-12-11T06:51:26;10.63;;;5.33;;
20627;SDS011;10473;42.734;24.258;2022-12-11T06:53:55;14.30;;;7.57;;
20627;SDS011;10473;42.734;24.258;2022-12-11T06:56:23;15.53;;;10.70;;
20627;SDS011;10473;42.734;24.258;2022-12-11T06:58:52;18.23;;;12.17;;
20627;SDS011;10473;42.734;24.258;2022-12-11T07:01:22;10.67;;;6.33;;
20627;SDS011;10473;42.734;24.258;2022-12-11T07:03:51;6.43;;;4.63;;
20627;SDS011;10473;42.734;24.258;2022-12-11T07:06:19;4.13;;;1.73;;
20627;SDS011;10473;42.734;24.258;2022-12-11T07:08:49;2.93;;;2.03;;
20627;SDS011;10473;42.734;24.258;2022-12-11T07:11:18;1.17;;;1.03;;
20627;SDS011;10473;42.734;24.258;2022-12-11T07:13:46;1.90;;;1.70;;
20627;SDS011;10473;42.734;24.258;2022-12-11T07:16:15;4.33;;;3.57;;
20627;SDS011;10473;42.734;24.258;2022-12-11T07:18:46;2.43;;;1.97;;
20627;SDS011;10473;42.734;24.258;2022-12-11T07:21:15;6.00;;;3.33;;
20627;SDS011;10473;42.734;24.258;2022-12-11T07:23:43;5.97;;;4.40;;
20627;SDS011;10473;42.734;24.258;2022-12-11T07:26:13;18.90;;;14.53;;
20627;SDS011;10473;42.734;24.258;2022-12-11T07:28:42;5.70;;;4.13;;
20627;SDS011;10473;42.734;24.258;2022-12-11T07:31:10;3.27;;;2.03;;
20627;SDS011;10473;42.734;24.258;2022-12-11T07:33:40;2.53;;;1.77;;
20627;SDS011;10473;42.734;24.258;2022-12-11T07:36:09;3.03;;;2.10;;
20627;SDS011;10473;42.734;24.258;2022-12-11T07:38:38;3.53;;;1.87;;
20627;SDS011;10473;42.734;24.258;2022-12-11T07:41:06;5.30;;;2.60;;
20627;SDS011;10473;42.734;24.258;2022-12-11T07:43:36;6.37;;;5.23;;
20627;SDS011;10473;42.734;24.258;2022-12-11T07:46:06;6.03;;;4.70;;
20627;SDS011;10473;42.734;24.258;2022-12-11T07:48:36;9.40;;;4.80;;
20627;SDS011;10473;42.734;24.258;2022-12-11T07:51:08;10.73;;;6.20;;
20627;SDS011;10473;42.734;24.258;2022-12-11T07:53:37;3.50;;;2.47;;
20627;SDS011;10473;42.734;24.258;2022-12-11T07:56:05;6.00;;;3.27;;
20627;SDS011;10473;42.734;24.258;2022-12-11T07:58:33;7.27;;;6.10;;
20627;SDS011;10473;42.734;24.258;2022-12-11T08:01:03;4.87;;;2.83;;
20627;SDS011;10473;42.734;24.258;2022-12-11T08:03:31;6.83;;;3.90;;
20627;SDS011;10473;42.734;24.258;2022-12-11T08:05:58;0.93;;;0.80;;
20627;SDS011;10473;42.734;24.258;2022-12-11T08:08:26;1.47;;;1.37;;
20627;SDS011;10473;42.734;24.258;2022-12-11T08:10:54;1.80;;;1.17;;
20627;SDS011;10473;42.734;24.258;2022-12-11T08:13:21;1.50;;;1.07;;
20627;SDS011;10473;42.734;24.258;2022-12-11T08:15:49;1.50;;;0.97;;
20627;SDS011;10473;42.734;24.258;2022-12-11T08:18:19;0.93;;;0.70;;
20627;SDS011;10473;42.734;24.258;2022-12-11T08:20:46;2.90;;;1.20;;
20627;SDS011;10473;42.734;24.258;2022-12-11T08:23:14;2.07;;;1.20;;
20627;SDS011;10473;42.734;24.258;2022-12-11T08:25:41;0.80;;;0.57;;
20627;SDS011;10473;42.734;24.258;2022-12-11T08:28:09;15.97;;;9.57;;
20627;SDS011;10473;42.734;24.258;2022-12-11T08:30:37;3.80;;;2.13;;
20627;SDS011;10473;42.734;24.258;2022-12-11T08:33:06;24.60;;;14.13;;
20627;SDS011;10473;42.734;24.258;2022-12-11T08:35:38;3.97;;;2.53;;
20627;SDS011;10473;42.734;24.258;2022-12-11T08:38:06;2.80;;;1.60;;
20627;SDS011;10473;42.734;24.258;2022-12-11T08:40:34;1.40;;;0.90;;
20627;SDS011;10473;42.734;24.258;2022-12-11T08:43:01;3.17;;;1.03;;
20627;SDS011;10473;42.734;24.258;2022-12-11T08:45:29;3.13;;;1.20;;
20627;SDS011;10473;42.734;24.258;2022-12-11T08:47:57;3.20;;;1.23;;
20627;SDS011;10473;42.734;24.258;2022-12-11T08:50:24;8.77;;;3.77;;
20627;SDS011;10473;42.734;24.258;2022-12-11T08:52:53;2.30;;;1.60;;
20627;SDS011;10473;42.734;24.258;2022-12-11T08:55:21;4.40;;;3.63;;
20627;SDS011;10473;42.734;24.258;2022-12-11T08:57:49;1.70;;;1.37;;
20627;SDS011;10473;42.734;24.258;2022-12-11T09:00:16;7.03;;;6.27;;
20627;SDS011;10473;42.734;24.258;2022-12-11T09:02:44;5.03;;;2.83;;
20627;SDS011;10473;42.734;24.258;2022-12-11T09:05:12;2.87;;;2.63;;
20627;SDS011;10473;42.734;24.258;2022-12-11T09:07:40;1.37;;;1.23;;
20627;SDS011;10473;42.734;24.258;2022-12-11T09:10:09;1.10;;;0.40;;
20627;SDS011;10473;42.734;24.258;2022-12-11T09:12:38;0.40;;;0.40;;
20627;SDS011;10473;42.734;24.258;2022-12-11T09:15:06;3.37;;;1.47;;
20627;SDS011;10473;42.734;24.258;2022-12-11T09:17:34;2.30;;;1.47;;
20627;SDS011;10473;42.734;24.258;2022-12-11T09:20:02;2.10;;;1.23;;
20627;SDS011;10473;42.734;24.258;2022-12-11T09:22:30;1.70;;;1.60;;
20627;SDS011;10473;42.734;24.258;2022-12-11T09:24:58;2.70;;;1.50;;
20627;SDS011;10473;42.734;24.258;2022-12-11T09:27:27;1.67;;;1.27;;
20627;SDS011;10473;42.734;24.258;2022-12-11T09:29:55;3.13;;;1.57;;
20627;SDS011;10473;42.734;24.258;2022-12-11T09:32:23;1.33;;;0.97;;
20627;SDS011;10473;42.734;24.258;2022-12-11T09:34:50;4.73;;;2.40;;
20627;SDS011;10473;42.734;24.258;2022-12-11T09:37:18;4.60;;;2.20;;
20627;SDS011;10473;42.734;24.258;2022-12-11T09:39:46;1.67;;;1.33;;
20627;SDS011;10473;42.734;24.258;2022-12-11T09:42:14;3.13;;;1.70;;
20627;SDS011;10473;42.734;24.258;2022-12-11T09:44:48;1.87;;;1.53;;
20627;SDS011;10473;42.734;24.258;2022-12-11T09:47:20;1.83;;;1.60;;
20627;SDS011;10473;42.734;24.258;2022-12-11T09:49:52;3.90;;;2.60;;
20627;SDS011;10473;42.734;24.258;2022-12-11T09:52:27;1.03;;;0.70;;
20627;SDS011;10473;42.734;24.258;2022-12-11T09:55:01;2.07;;;1.53;;
20627;SDS011;10473;42.734;24.258;2022-12-11T09:57:40;2.07;;;1.77;;
20627;SDS011;10473;42.734;24.258;2022-12-11T10:00:25;2.40;;;1.17;;
20627;SDS011;10473;42.734;24.258;2022-12-11T10:05:57;1.80;;;0.43;;
20627;SDS011;10473;42.734;24.258;2022-12-11T10:08:34;3.00;;;0.60;;
20627;SDS011;10473;42.734;24.258;2022-12-11T10:11:13;1.17;;;1.07;;
20627;SDS011;10473;42.734;24.258;2022-12-11T10:13:57;2.00;;;1.50;;
20627;SDS011;10473;42.734;24.258;2022-12-11T10:16:35;3.70;;;1.80;;
20627;SDS011;10473;42.734;24.258;2022-12-11T10:19:08;4.13;;;1.97;;
20627;SDS011;10473;42.734;24.258;2022-12-11T10:21:42;1.20;;;0.80;;
20627;SDS011;10473;42.734;24.258;2022-12-11T10:24:11;1.03;;;0.40;;
20627;SDS011;10473;42.734;24.258;2022-12-11T10:26:44;1.37;;;0.87;;
20627;SDS011;10473;42.734;24.258;2022-12-11T10:29:13;6.07;;;3.17;;
20627;SDS011;10473;42.734;24.258;2022-12-11T10:31:44;2.93;;;1.60;;
20627;SDS011;10473;42.734;24.258;2022-12-11T10:34:18;5.03;;;1.50;;
20627;SDS011;10473;42.734;24.258;2022-12-11T10:36:55;3.17;;;1.57;;
20627;SDS011;10473;42.734;24.258;2022-12-11T10:39:23;2.50;;;1.30;;
20627;SDS011;10473;42.734;24.258;2022-12-11T10:41:51;1.27;;;1.10;;
20627;SDS011;10473;42.734;24.258;2022-12-11T10:44:21;4.97;;;2.13;;
20627;SDS011;10473;42.734;24.258;2022-12-11T10:47:02;1.87;;;1.00;;
20627;SDS011;10473;42.734;24.258;2022-12-11T10:49:32;3.73;;;2.90;;
20627;SDS011;10473;42.734;24.258;2022-12-11T10:52:00;3.87;;;2.10;;
20627;SDS011;10473;42.734;24.258;2022-12-11T10:54:36;9.87;;;4.60;;
20627;SDS011;10473;42.734;24.258;2022-12-11T10:57:06;9.73;;;4.27;;
20627;SDS011;10473;42.734;24.258;2022-12-11T10:59:36;3.53;;;1.93;;
20627;SDS011;10473;42.734;24.258;2022-12-11T11:02:14;5.47;;;1.90;;
20627;SDS011;10473;42.734;24.258;2022-12-11T11:04:47;2.43;;;1.87;;
20627;SDS011;10473;42.734;24.258;2022-12-11T11:07:18;2.87;;;1.60;;
20627;SDS011;10473;42.734;24.258;2022-12-11T11:09:49;1.20;;;1.00;;
20627;SDS011;10473;42.734;24.258;2022-12-11T11:12:20;0.57;;;0.53;;
20627;SDS011;10473;42.734;24.258;2022-12-11T11:14:58;0.80;;;0.40;;
20627;SDS011;10473;42.734;24.258;2022-12-11T11:17:29;1.03;;;0.70;;
20627;SDS011;10473;42.734;24.258;2022-12-11T11:19:58;0.87;;;0.57;;
20627;SDS011;10473;42.734;24.258;2022-12-11T11:22:31;0.53;;;0.43;;
20627;SDS011;10473;42.734;24.258;2022-12-11T11:24:59;2.10;;;1.30;;
20627;SDS011;10473;42.734;24.258;2022-12-11T11:27:28;0.73;;;0.70;;
20627;SDS011;10473;42.734;24.258;2022-12-11T11:30:00;1.63;;;0.80;;
20627;SDS011;10473;42.734;24.258;2022-12-11T11:32:35;1.47;;;0.90;;
20627;SDS011;10473;42.734;24.258;2022-12-11T11:35:09;1.50;;;0.93;;
20627;SDS011;10473;42.734;24.258;2022-12-11T11:37:44;2.97;;;2.07;;
20627;SDS011;10473;42.734;24.258;2022-12-11T11:40:14;2.53;;;1.20;;
20627;SDS011;10473;42.734;24.258;2022-12-11T11:42:46;1.50;;;0.97;;
20627;SDS011;10473;42.734;24.258;2022-12-11T11:45:21;3.57;;;1.63;;
20627;SDS011;10473;42.734;24.258;2022-12-11T11:47:57;0.30;;;0.30;;
20627;SDS011;10473;42.734;24.258;2022-12-11T11:50:30;2.27;;;1.47;;
20627;SDS011;10473;42.734;24.258;2022-12-11T11:53:02;2.67;;;1.10;;
20627;SDS011;10473;42.734;24.258;2022-12-11T11:55:37;1.03;;;0.87;;
20627;SDS011;10473;42.734;24.258;2022-12-11T11:58:11;3.03;;;1.13;;
20627;SDS011;10473;42.734;24.258;2022-12-11T12:00:42;4.67;;;3.27;;
20627;SDS011;10473;42.734;24.258;2022-12-11T12:03:12;2.07;;;1.83;;
20627;SDS011;10473;42.734;24.258;2022-12-11T12:05:44;7.67;;;4.47;;
20627;SDS011;10473;42.734;24.258;2022-12-11T12:08:22;5.70;;;3.07;;
20627;SDS011;10473;42.734;24.258;2022-12-11T12:11:01;5.57;;;3.07;;
20627;SDS011;10473;42.734;24.258;2022-12-11T12:13:37;5.57;;;3.27;;
20627;SDS011;10473;42.734;24.258;2022-12-11T12:16:13;6.60;;;3.37;;
20627;SDS011;10473;42.734;24.258;2022-12-11T12:18:51;4.30;;;2.60;;
20627;SDS011;10473;42.734;24.258;2022-12-11T12:21:29;3.17;;;2.73;;
20627;SDS011;10473;42.734;24.258;2022-12-11T12:24:04;3.47;;;2.40;;
20627;SDS011;10473;42.734;24.258;2022-12-11T12:26:38;3.57;;;2.17;;
20627;SDS011;10473;42.734;24.258;2022-12-11T12:29:14;2.33;;;1.80;;
20627;SDS011;10473;42.734;24.258;2022-12-11T12:31:57;1.77;;;1.40;;
20627;SDS011;10473;42.734;24.258;2022-12-11T12:34:39;4.70;;;3.10;;
20627;SDS011;10473;42.734;24.258;2022-12-11T12:37:24;4.83;;;4.10;;
20627;SDS011;10473;42.734;24.258;2022-12-11T12:40:07;13.97;;;9.60;;
20627;SDS011;10473;42.734;24.258;2022-12-11T12:42:46;3.50;;;2.97;;
20627;SDS011;10473;42.734;24.258;2022-12-11T12:45:22;10.80;;;6.47;;
20627;SDS011;10473;42.734;24.258;2022-12-11T12:47:55;8.30;;;5.47;;
20627;SDS011;10473;42.734;24.258;2022-12-11T12:50:24;5.93;;;3.03;;
20627;SDS011;10473;42.734;24.258;2022-12-11T12:53:00;4.53;;;2.47;;
20627;SDS011;10473;42.734;24.258;2022-12-11T12:55:30;2.27;;;1.70;;
20627;SDS011;10473;42.734;24.258;2022-12-11T12:58:01;13.67;;;10.20;;
20627;SDS011;10473;42.734;24.258;2022-12-11T13:00:32;8.60;;;6.40;;
20627;SDS011;10473;42.734;24.258;2022-12-11T13:03:02;8.87;;;6.53;;
20627;SDS011;10473;42.734;24.258;2022-12-11T13:05:42;8.87;;;3.87;;
20627;SDS011;10473;42.734;24.258;2022-12-11T13:08:12;3.00;;;1.93;;
20627;SDS011;10473;42.734;24.258;2022-12-11T13:10:57;6.20;;;4.13;;
20627;SDS011;10473;42.734;24.258;2022-12-11T13:13:32;8.90;;;6.20;;
20627;SDS011;10473;42.734;24.258;2022-12-11T13:16:23;5.23;;;3.60;;
20627;SDS011;10473;42.734;24.258;2022-12-11T13:18:52;14.33;;;8.83;;
20627;SDS011;10473;42.734;24.258;2022-12-11T13:21:26;27.63;;;15.53;;
20627;SDS011;10473;42.734;24.258;2022-12-11T13:24:11;18.47;;;9.83;;
20627;SDS011;10473;42.734;24.258;2022-12-11T13:26:40;7.43;;;4.03;;
20627;SDS011;10473;42.734;24.258;2022-12-11T13:32:20;26.60;;;20.30;;
20627;SDS011;10473;42.734;24.258;2022-12-11T13:34:50;23.30;;;19.70;;
20627;SDS011;10473;42.734;24.258;2022-12-11T13:37:23;15.80;;;12.87;;
20627;SDS011;10473;42.734;24.258;2022-12-11T13:39:56;20.40;;;15.80;;
20627;SDS011;10473;42.734;24.258;2022-12-11T13:42:27;32.67;;;23.60;;
20627;SDS011;10473;42.734;24.258;2022-12-11T13:44:59;44.23;;;29.47;;
20627;SDS011;10473;42.734;24.258;2022-12-11T13:47:28;22.90;;;14.60;;
20627;SDS011;10473;42.734;24.258;2022-12-11T13:50:00;20.93;;;11.30;;
20627;SDS011;10473;42.734;24.258;2022-12-11T13:52:51;21.60;;;15.30;;
20627;SDS011;10473;42.734;24.258;2022-12-11T13:55:21;13.43;;;9.10;;
20627;SDS011;10473;42.734;24.258;2022-12-11T13:57:51;3.37;;;2.73;;
20627;SDS011;10473;42.734;24.258;2022-12-11T14:00:19;13.67;;;7.67;;
20627;SDS011;10473;42.734;24.258;2022-12-11T14:02:49;21.90;;;11.37;;
20627;SDS011;10473;42.734;24.258;2022-12-11T14:05:19;11.83;;;8.50;;
20627;SDS011;10473;42.734;24.258;2022-12-11T14:07:49;4.40;;;3.63;;
20627;SDS011;10473;42.734;24.258;2022-12-11T14:10:19;3.63;;;2.63;;
20627;SDS011;10473;42.734;24.258;2022-12-11T14:12:50;1.40;;;1.30;;
20627;SDS011;10473;42.734;24.258;2022-12-11T14:15:22;1.50;;;1.40;;
20627;SDS011;10473;42.734;24.258;2022-12-11T14:17:50;1.37;;;1.00;;
20627;SDS011;10473;42.734;24.258;2022-12-11T14:20:19;1.73;;;0.77;;
20627;SDS011;10473;42.734;24.258;2022-12-11T14:22:51;4.10;;;3.53;;
20627;SDS011;10473;42.734;24.258;2022-12-11T14:25:30;1.53;;;1.23;;
20627;SDS011;10473;42.734;24.258;2022-12-11T14:27:57;1.77;;;1.13;;
20627;SDS011;10473;42.734;24.258;2022-12-11T14:30:27;2.03;;;1.60;;
20627;SDS011;10473;42.734;24.258;2022-12-11T14:32:58;2.00;;;1.53;;
20627;SDS011;10473;42.734;24.258;2022-12-11T14:35:29;4.77;;;1.67;;
20627;SDS011;10473;42.734;24.258;2022-12-11T14:38:02;1.27;;;1.17;;
20627;SDS011;10473;42.734;24.258;2022-12-11T14:40:36;1.00;;;1.00;;
20627;SDS011;10473;42.734;24.258;2022-12-11T14:43:08;3.10;;;1.87;;
20627;SDS011;10473;42.734;24.258;2022-12-11T14:45:40;3.43;;;2.77;;
20627;SDS011;10473;42.734;24.258;2022-12-11T14:48:12;6.50;;;4.27;;
20627;SDS011;10473;42.734;24.258;2022-12-11T14:50:47;4.37;;;2.87;;
20627;SDS011;10473;42.734;24.258;2022-12-11T14:53:19;9.17;;;7.37;;
20627;SDS011;10473;42.734;24.258;2022-12-11T14:55:50;14.13;;;12.73;;
20627;SDS011;10473;42.734;24.258;2022-12-11T14:58:20;14.07;;;12.43;;
20627;SDS011;10473;42.734;24.258;2022-12-11T15:00:57;11.53;;;9.93;;
20627;SDS011;10473;42.734;24.258;2022-12-11T15:03:29;17.23;;;10.50;;